FAQ´s Contáctenos Seguridad Mapa Web Inicio
Recibiendo cotizaciones de bróker en TIEMPO DIFERIDO
ULTIMA HORA:
Ver Noticia Anterior Detener Noticias Ver Noticia Siguiente
Nasdaq 100
Nombre ▼ Precio Var. % Máximo Mínimo Hora C   V
AC ALIGN TECHNOLOGY 589,610 -1,35 605,250 587,370 21:30  
AC AMER.ELEC.POWER 83,49 -0,66 84,37 83,21 21:30  
AC ANALOG DEVICES IN 172,04 2,28 172,10 169,78 21:30  
AC ASML HOLDING 789,40 1,42 789,59 775,84 21:30  
AC CDW CORP/DE 177,720 0,1 179,050 177,110 21:30  
AC CHARTER COMMUNICA 699,030 -0,65 707,720 694,610 21:30  
AC CISCO SYSTEMS INC 55,250 -0,71 55,870 54,960 21:30  
AC CSX CORP 34,16 2,18 34,42 33,57 21:30  
AC DEXCOM INC 544,490 -1,84 554,580 543,340 21:30  
AC DOCUSIGN 260,470 -0,26 262,210 258,250 21:30  
AC FOX CORP-CLASS B 38,970 -1,11 39,620 38,850 21:30  
AC JD.COM INC 81,42 0,48 81,60 79,66 21:30  
AC KRAFT HEINZ 36,980 -0,75 37,540 36,850 21:30  
AC MATCH GROUP INC 160,020 1,91 160,080 156,380 21:30  
AC MICROSOFT CORP. 304,21 0,48 304,44 300,54 21:30  
AC MODERNA INC 324,210 -2,31 341,500 318,560 21:30  
AC NETEASE INC 95,56 0,1 96,70 94,32 21:30  
AC OKTA INC 255,020 -0,19 257,035 250,440 21:30  
AC PELOTON INTERACTI 85,110 -0,86 86,600 84,480 21:30  
AC PEPSICO INC. 158,81 -0,28 159,66 157,51 21:30  
AC PINDUODUO INC-ADR 94,010 -0,02 95,895 92,540 21:30  
AC T-MOBILE US INC 117,560 -1,42 120,340 117,220 21:30  
AC TEXAS INSTRUMENTS 194,45 1,01 194,80 192,74 21:30  
AC TRIP.COM GROUP LT 32,720 1,8 33,250 32,030 21:30  
AC WALGREENS BOOTS A 48,92 -3,64 51,66 48,80 21:30  
AC WORKDAY INC 270,99 -0,04 272,21 268,15 21:30  
AC XCEL ENERGY INC. 65,93 0,76 66,00 65,19 21:30  
ACTIVISION BLIZZ RG 76,40 0,38 77,07 76,19 21:30  
ADOBE RG 610,09 0,42 612,25 607,67 21:30  
ADVANCED MICRO D RG 112,12 0,11 112,83 111,14 21:30  
ALPHAB RG-C-NV 2.833,50 0,18 2.844,00 2.821,54 21:30  
ALPHABET-A RG 2.827,36 0,15 2.832,46 2.815,10 21:30  
AMAZON.COM RG 3.409,02 3,3 3.410,42 3.304,00 21:30  
AMGEN RG 207,84 0,51 208,50 206,36 21:30  
ANSYS RG 358,85 -0,15 360,97 356,64 21:30  
APPLE RG 144,84 0,75 144,89 143,52 21:30  
APPLIED MATERIAL RG 131,59 -0,36 132,81 131,25 21:30  
ATLASSIAN RG-A 409,74 0,74 409,77 401,69 21:30  
AUTODESK INC RG 291,19 0,69 291,83 289,35 21:30  
AUTOMATIC DATA P RG 212,98 2,13 213,02 209,57 21:30  
BAIDU SP ADR-A 163,63 0,57 165,82 162,70 21:30  
BIOGEN RG 281,19 -1,42 286,00 278,80 21:30  
BOOKING HOLDINGS INC 2.538,34 1,68 2.538,73 2.515,52 21:30  
BROADCOM INC 503,25 1,13 505,81 501,08 21:30  
CADENCE DESIGN RG 155,78 -0,98 157,80 155,20 21:30  
CERNER CORP RG 71,42 -0,41 72,28 71,38 21:30  
CHECK POINT SFTW RG 121,24 -0,95 122,88 120,90 21:30  
CINTAS RG 416,03 -0,09 419,16 414,83 21:30  
COGNIZANT TECH SO-A 78,83 1,78 78,96 77,43 21:30  
COMCAST-A 54,02 0,05 54,54 53,69 21:30  
COPART RG 144,99 0,14 146,23 144,92 21:30  
COSTCO WHSL RG 452,39 0,38 453,89 449,21 21:30  
DOLLAR TREE RG 99,27 0,63 99,82 98,82 21:30  
EBAY RG 74,90 0,29 75,29 74,65 21:30  
ELECTRONIC ARTS RG 134,75 -0,7 136,69 133,27 21:30  
EXELON RG 49,80 -0,71 50,64 49,79 21:30  
FACEBOOK-A RG 324,76 -1,14 329,02 322,52 21:30  
FASTENAL RG 55,74 0,21 56,14 55,56 21:30  
FISERV INC RG 109,80 1,87 110,11 108,44 21:30  
FOX CORP - CLASS A 41,61 -1,97 42,73 41,54 21:30  
GILEAD SCIENCES RG 67,63 -0,76 68,60 67,60 21:30  
IDEXX LABS RG 635,15 0,86 637,12 631,76 21:30  
ILLUMINA RG 409,93 0,44 411,67 408,30 21:30  
INCYTE RG 65,56 -0,33 65,91 65,33 21:30  
INTEL RG 54,46 1,03 54,49 53,81 21:30  
INTUIT RG 552,16 1,54 553,19 544,29 21:30  
INTUITIVE SURGIC RG 331,50 0,16 333,40 330,00 21:30  
KEURIG DR PEPPER INC 35,31 -0,78 35,62 35,06 21:30  
KLA RG 329,10 -0,2 332,00 327,89 21:30  
LAM RESEARCH COR RG 564,47 -0,6 567,94 561,39 21:30  
LULULEMON ATHL RG 403,51 -0,85 409,38 403,21 21:30  
MARRIOTT INTL RG-A 160,04 3,1 161,33 157,09 21:30  
MARVELL TECHNOLOGY INC 65,65 0,55 66,28 65,26 21:30  
MAXIM INTEGRATED PRODUCTS INC 14,2500 - 0 16,2100 14,0300 22:00  
MERCADOLIBRE RG 1.563,09 2,54 1.571,02 1.531,50 21:30  
MICROCHIP TECH RG 72,78 0,41 73,48 72,47 21:30  
MICRON TECHNOLOG RG 67,68 -0,17 68,45 67,48 21:30  
MONDELEZ INTL RG-A 60,15 -0,79 60,66 59,76 21:30  
MONSTER BEVERAGE RG 85,58 -0,02 86,34 85,16 21:30  
NETFLIX RG 628,29 -0,86 639,42 625,16 21:30  
NVIDIA RG 218,62 0,53 219,30 216,62 21:30  
NXP SEMICONDUCTO BR 189,81 0,37 191,30 189,10 21:30  
O REILLY AUTO RG 628,99 0,61 633,12 628,25 21:30  
PACCAR RG 86,89 0,41 87,45 86,44 21:30  
PAYCHEX INC RG 119,15 0,33 119,44 118,56 21:30  
PAYPAL HOLDINGS RG 268,35 0,71 269,68 265,44 21:30  
QUALCOMM RG 130,20 1,19 130,47 128,68 21:30  
REGENERON PHARMA RG 553,24 -0,42 558,20 552,27 21:30  
ROSS STORES RG 108,71 0,52 109,73 108,28 21:30  
SEAGEN INC 172,73 1,49 174,95 168,14 21:30  
SIRIUS XM HLDGS RG 6,02 -0,16 6,06 6,00 21:30  
SKYWORKS SOLUTIO RG 160,53 0,18 162,34 160,05 21:30  
SPLUNK RG 165,00 0,31 165,59 163,23 21:30  
STARBUCKS RG 111,45 -0,37 112,92 110,95 21:30  
SYNOPSYS RG 306,26 0,46 306,59 304,33 21:30  
TESLA RG 843,03 3,01 843,21 822,39 21:30  
VERISIGN RG 214,47 0,58 214,52 212,56 21:30  
VERISK ANALYTICS RG 210,63 -0,43 212,24 210,50 21:30  
VERTEX PHARMACEU RG 181,77 -0,07 183,10 181,06 21:30  
La cotización de los valores del índice se muestra en Dólares

Mejores hoy

Nasdaq 100
AMZN 3.409,02 3,3% 21:30:00
MAR 160,04 3,1% 21:30:00
TSLA 843,03 3,01% 21:30:00
MELI 1.563,09 2,54% 21:30:00
AC... 172,04 2,28% 21:30:00

Peores hoy

Nasdaq 100
AC... 48,92 -3,64% 21:30:00
AC... 324,210 -2,31% 21:30:00
FOXA 41,61 -1,97% 21:30:00
AC... 544,490 -1,84% 21:30:00
BIIB 281,19 -1,42% 21:30:00

Claves

Icono de conformidad con el Nivel Doble-A, de las Directrices de Accesibilidad para el Contenido Web 1.0 del W3C-WAI
Cotizaciones de CAC 40 proporcionadas por Euronext. Cotizaciones de FTSE 100 proporcionadas por FTSE. Cotizaciones de Ámsterdam Exchange proporcionadas por Euronext. Cotizaciones de Swiss Market Index proporcionadas por Swiss Stock Exchange. Cotizaciones de Oporto Por Stock I proporcionadas por Euronext. Cotizaciones de Milano Borsa proporcionadas por Milano Italia Borsa. Cotizaciones de FTSEurofirst proporcionadas por FTSE. Cotizaciones de Spot Market Germany (Frankfurt/Xetra®) Level 1 Delayed y Deutsche Börse Indices and Xetra® ETF Delayed proporcionadas por Deutsche Börse. Cotizaciones de S&P 500 proporcionadas por S&P Composite. Cotizaciones de Dow Jones proporcionadas por Dow Jones. Cotizaciones de NASDAQ 100/Composite proporcionadas por NASDAQ. Cotizaciones de NIKKEI 225 proporcionadas por NIKKEI 225 Stock A. Noticias de Última hora y Claves económicas proporcionadas por Europa Press. Se habla de... y A Fondo proporcionados por AFINet. Queda terminantemente prohibida la diseminación de esta información.
Los datos de carácter bursátil distribuidos a través de esta Web se publican con carácter meramente informativo. Unicaja Banco S.A. no es responsable de los errores o inexactitudes que pudiera contener esta información, no resultando, en ningún caso, responsable de las consecuencias que del acceso o de su visualización pudieran derivarse. Unicaja Banco S.A. no modifica, transforma o manipula los contenidos de los datos de carácter bursátil proporcionados por los mercados.
Los presentes informes no constituyen recomendación personalizada a efectos de la Ley 24/1988 del Mercado de Valores y su normativa de desarrollo al no presentarse como convenientes para el cliente, ni basarse en una consideración de sus circunstancias personales. Así mismo, constituyen informes de inversiones a efectos de la Ley 24/1988 del Mercado de Valores y su normativa de desarrollo, pues su objetivo es dar al público una explicación objetiva e independiente del objeto del propio informe. Las conclusiones obtenidas en base a resultados anteriores a los informes, o la referente a resultados futuros, no constituyen un indicador fiable de resultados futuros. El rendimiento obtenido por productos denominados en divisas extranjeras podrá verse afectado en función de las fluctuaciones monetarias. El tratamiento fiscal depende de las circunstancias individuales de cada cliente, y puede variar en el futuro. Los cálculos efectuados para hallar las rentabilidades de los productos que figuran en estos informes, han sido realizados de acuerdo con lo establecido en la normativa aplicable y corresponden al periodo al que se hace referencia. Dichas rentabilidades no son promesa ni garantía de rentabilidades futuras.